createdAt,value
2023-04-17T00:01:27.138Z,9.60
2023-04-17T00:03:54.604Z,9.60
2023-04-17T00:06:21.248Z,9.60
2023-04-17T00:08:47.850Z,9.60
2023-04-17T00:11:15.037Z,9.60
2023-04-17T00:13:43.893Z,9.60
2023-04-17T00:16:12.516Z,9.60
2023-04-17T00:18:39.924Z,9.60
2023-04-17T00:21:06.642Z,9.50
2023-04-17T00:23:33.266Z,9.50
2023-04-17T00:25:59.925Z,9.50
2023-04-17T00:28:26.529Z,9.60
2023-04-17T00:30:53.225Z,9.50
2023-04-17T00:33:20.014Z,9.60
2023-04-17T00:35:46.636Z,9.50
2023-04-17T00:38:13.242Z,9.50
2023-04-17T00:40:39.955Z,9.50
2023-04-17T00:43:06.900Z,9.50
2023-04-17T00:45:34.497Z,9.50
2023-04-17T00:48:02.962Z,9.50
2023-04-17T00:50:30.253Z,9.50
2023-04-17T00:52:58.278Z,9.50
2023-04-17T00:55:25.558Z,9.50
2023-04-17T00:57:52.279Z,9.50
2023-04-17T01:00:18.932Z,9.50
2023-04-17T01:02:46.688Z,9.40
2023-04-17T01:05:13.623Z,9.40
2023-04-17T01:07:41.213Z,9.40
2023-04-17T01:10:08.329Z,9.40
2023-04-17T01:12:35.237Z,9.40
2023-04-17T01:15:02.317Z,9.40
2023-04-17T01:17:29.022Z,9.40
2023-04-17T01:19:57.678Z,9.40
2023-04-17T01:22:24.447Z,9.40
2023-04-17T01:24:51.137Z,9.40
2023-04-17T01:27:17.822Z,9.40
2023-04-17T01:29:44.758Z,9.40
2023-04-17T01:32:11.546Z,9.30
2023-04-17T01:34:38.201Z,9.40
2023-04-17T01:37:05.056Z,9.40
2023-04-17T01:39:31.776Z,9.40
2023-04-17T01:41:58.528Z,9.40
2023-04-17T01:44:25.384Z,9.40
2023-04-17T01:46:51.957Z,9.40
2023-04-17T01:49:18.741Z,9.40
2023-04-17T01:51:45.378Z,9.40
2023-04-17T01:54:12.048Z,9.40
2023-04-17T01:56:38.653Z,9.40
2023-04-17T01:59:05.399Z,9.40
2023-04-17T02:01:32.518Z,9.40
2023-04-17T02:03:59.275Z,9.40
2023-04-17T02:06:27.385Z,9.40
2023-04-17T02:08:54.120Z,9.40
2023-04-17T02:11:21.078Z,9.40
2023-04-17T02:13:48.603Z,9.40
2023-04-17T02:16:16.248Z,9.40
2023-04-17T02:18:43.025Z,9.40
2023-04-17T02:21:09.843Z,9.40
2023-04-17T02:23:36.550Z,9.30
2023-04-17T02:26:03.298Z,9.40
2023-04-17T02:28:30.037Z,9.30
2023-04-17T02:30:56.975Z,9.40
2023-04-17T02:33:23.713Z,9.40
2023-04-17T02:35:50.579Z,9.40
2023-04-17T02:38:17.596Z,9.40
2023-04-17T02:40:44.183Z,9.40
2023-04-17T02:43:13.163Z,9.30
2023-04-17T02:45:39.743Z,9.40
2023-04-17T02:48:06.615Z,9.40
2023-04-17T02:50:33.562Z,9.40
2023-04-17T02:53:00.362Z,9.30
2023-04-17T02:55:27.149Z,9.30
2023-04-17T02:57:53.770Z,9.30
2023-04-17T03:00:20.791Z,9.30
2023-04-17T03:02:47.764Z,9.30
2023-04-17T03:05:16.578Z,9.30
2023-04-17T03:07:43.265Z,9.30
2023-04-17T03:10:10.032Z,9.30
2023-04-17T03:12:36.757Z,9.30
2023-04-17T03:15:03.632Z,9.30
2023-04-17T03:17:30.296Z,9.30
2023-04-17T03:19:56.877Z,9.30
2023-04-17T03:22:23.480Z,9.30
2023-04-17T03:24:50.078Z,9.30
2023-04-17T03:27:16.677Z,9.30
2023-04-17T03:29:43.319Z,9.30
2023-04-17T03:32:10.034Z,9.30
2023-04-17T03:34:36.990Z,9.30
2023-04-17T03:37:03.567Z,9.30
2023-04-17T03:39:30.471Z,9.30
2023-04-17T03:41:57.152Z,9.30
2023-04-17T03:44:23.763Z,9.30
2023-04-17T03:46:50.722Z,9.30
2023-04-17T03:49:17.459Z,9.20
2023-04-17T03:51:44.242Z,9.30
2023-04-17T03:54:10.971Z,9.30
2023-04-17T03:56:37.645Z,9.30
2023-04-17T03:59:05.280Z,9.30
2023-04-17T04:01:32.669Z,9.20
2023-04-17T04:03:59.947Z,9.20
2023-04-17T04:06:29.792Z,9.20
2023-04-17T04:08:57.128Z,9.20
2023-04-17T04:11:23.767Z,9.20
2023-04-17T04:13:50.688Z,9.20
2023-04-17T04:16:17.486Z,9.20
2023-04-17T04:18:44.230Z,9.20
2023-04-17T04:21:12.070Z,9.20
2023-04-17T04:23:41.065Z,9.20
2023-04-17T04:26:07.900Z,9.20
2023-04-17T04:28:34.627Z,9.10
2023-04-17T04:31:02.701Z,9.10
2023-04-17T04:33:30.149Z,9.10
2023-04-17T04:36:00.866Z,9.10
2023-04-17T04:38:30.966Z,9.10
2023-04-17T04:41:01.464Z,9.10
2023-04-17T04:43:33.418Z,9.10
2023-04-17T04:46:00.318Z,9.10
2023-04-17T04:48:27.553Z,9.10
2023-04-17T04:50:54.770Z,9.10
2023-04-17T04:53:21.437Z,9.10
2023-04-17T04:55:48.056Z,9.10
2023-04-17T04:58:15.059Z,9.10
2023-04-17T05:00:42.021Z,9.10
2023-04-17T05:03:08.871Z,9.10
2023-04-17T05:05:35.917Z,9.10
2023-04-17T05:08:03.105Z,9.10
2023-04-17T05:10:29.892Z,9.10
2023-04-17T05:12:56.543Z,9.10
2023-04-17T05:15:23.306Z,9.10
2023-04-17T05:17:50.049Z,9.20
2023-04-17T05:20:16.923Z,9.10
2023-04-17T05:22:43.664Z,9.10
2023-04-17T05:25:10.440Z,9.10
2023-04-17T05:27:37.711Z,9.10
2023-04-17T05:30:05.582Z,9.20
2023-04-17T05:32:32.677Z,9.10
2023-04-17T05:34:59.302Z,9.20
2023-04-17T05:37:25.900Z,9.10
2023-04-17T05:39:52.698Z,9.20
2023-04-17T05:42:19.328Z,9.20
2023-04-17T05:44:46.107Z,9.20
2023-04-17T05:47:12.907Z,9.20
2023-04-17T05:49:39.569Z,9.20
2023-04-17T05:52:06.344Z,9.20
2023-04-17T05:54:32.959Z,9.20
2023-04-17T05:56:59.642Z,9.20
2023-04-17T05:59:27.307Z,9.20
2023-04-17T06:01:54.194Z,9.20
2023-04-17T06:04:21.228Z,9.20
2023-04-17T06:06:48.069Z,9.20
2023-04-17T06:09:15.216Z,9.20
2023-04-17T06:11:41.992Z,9.20
2023-04-17T06:14:08.656Z,9.20
2023-04-17T06:16:35.347Z,9.20
2023-04-17T06:19:02.056Z,9.20
2023-04-17T06:21:28.788Z,9.20
2023-04-17T06:23:55.439Z,9.30
2023-04-17T06:26:22.070Z,9.20
2023-04-17T06:28:48.824Z,9.20
2023-04-17T06:31:15.594Z,9.20
2023-04-17T06:33:42.333Z,9.20
2023-04-17T06:36:09.090Z,9.20
2023-04-17T06:38:35.784Z,9.30
2023-04-17T06:41:02.462Z,9.30
2023-04-17T06:43:29.063Z,9.30
2023-04-17T06:45:55.828Z,9.30
2023-04-17T06:48:22.517Z,9.30
2023-04-17T06:50:49.593Z,9.40
2023-04-17T06:53:16.274Z,9.40
2023-04-17T06:55:43.119Z,9.40
2023-04-17T06:58:09.816Z,9.40
2023-04-17T07:00:36.522Z,9.30
2023-04-17T07:03:03.364Z,9.30
2023-04-17T07:05:30.141Z,9.30
2023-04-17T07:07:56.824Z,9.30
2023-04-17T07:10:23.664Z,9.30
2023-04-17T07:12:50.518Z,9.30
2023-04-17T07:15:17.409Z,9.30
2023-04-17T07:17:44.444Z,9.40
2023-04-17T07:20:11.682Z,9.40
2023-04-17T07:22:38.437Z,9.40
2023-04-17T07:25:06.158Z,9.40
2023-04-17T07:27:32.747Z,9.50
2023-04-17T07:29:59.315Z,9.50
2023-04-17T07:32:25.998Z,9.50
2023-04-17T07:34:52.896Z,9.50
2023-04-17T07:37:19.620Z,9.60
2023-04-17T07:39:50.039Z,9.60
2023-04-17T07:42:16.644Z,9.60
2023-04-17T07:44:43.352Z,9.60
2023-04-17T07:47:09.932Z,9.70
2023-04-17T07:49:36.669Z,9.70
2023-04-17T07:52:03.465Z,9.70
2023-04-17T07:54:31.347Z,9.70
2023-04-17T07:57:02.760Z,9.80
2023-04-17T07:59:30.813Z,9.80
2023-04-17T08:01:57.621Z,9.90
2023-04-17T08:04:25.290Z,9.90
2023-04-17T08:06:52.388Z,9.90
2023-04-17T08:09:20.114Z,9.90
2023-04-17T08:11:56.361Z,9.90
2023-04-17T08:14:24.360Z,9.90
2023-04-17T08:16:51.305Z,9.90
2023-04-17T08:19:17.977Z,9.90
2023-04-17T08:21:46.254Z,10.00
2023-04-17T08:24:12.865Z,10.00
2023-04-17T08:26:39.526Z,10.00
2023-04-17T08:29:06.158Z,10.00
2023-04-17T08:31:36.633Z,10.10
2023-04-17T08:34:13.788Z,10.10
2023-04-17T08:36:42.654Z,10.20
2023-04-17T08:39:12.016Z,10.20
2023-04-17T08:41:47.697Z,10.30
2023-04-17T08:44:19.155Z,10.30
2023-04-17T08:46:46.422Z,10.40
2023-04-17T08:49:13.444Z,10.40
2023-04-17T08:51:41.518Z,10.50
2023-04-17T08:54:08.256Z,10.60
2023-04-17T08:56:34.850Z,10.70
2023-04-17T08:59:01.586Z,10.80
2023-04-17T09:01:28.409Z,10.90
2023-04-17T09:03:56.955Z,11.00
2023-04-17T09:06:23.819Z,11.10
2023-04-17T09:08:58.051Z,11.20
2023-04-17T09:11:25.302Z,11.30
2023-04-17T09:13:52.739Z,11.40
2023-04-17T09:16:20.146Z,11.50
2023-04-17T09:18:48.048Z,11.70
2023-04-17T09:21:16.719Z,11.80
2023-04-17T09:23:53.163Z,12.10
2023-04-17T09:26:24.756Z,12.30
2023-04-17T09:29:03.873Z,12.50
2023-04-17T09:31:32.314Z,12.70
2023-04-17T09:34:07.656Z,12.80
2023-04-17T09:36:38.291Z,13.00
2023-04-17T09:39:15.986Z,13.00
2023-04-17T09:41:42.614Z,13.00
2023-04-17T09:44:09.871Z,13.10
2023-04-17T09:46:38.882Z,13.10
2023-04-17T09:49:29.755Z,13.10
2023-04-17T09:51:58.029Z,13.20
2023-04-17T09:54:25.414Z,13.40
2023-04-17T09:56:55.640Z,13.40
2023-04-17T09:59:26.181Z,13.50
2023-04-17T10:01:54.153Z,13.50
2023-04-17T10:04:21.787Z,13.50
2023-04-17T10:06:50.127Z,13.50
2023-04-17T10:09:16.817Z,13.50
2023-04-17T10:11:47.715Z,13.60
2023-04-17T10:14:26.308Z,13.70
2023-04-17T10:16:53.747Z,13.60
2023-04-17T10:19:24.038Z,13.80
2023-04-17T10:22:15.437Z,14.00
2023-04-17T10:24:43.054Z,14.20
2023-04-17T10:27:24.969Z,14.30
2023-04-17T10:30:02.560Z,14.40
2023-04-17T10:32:30.680Z,14.50
2023-04-17T10:35:03.853Z,14.50
2023-04-17T10:37:50.018Z,14.60
2023-04-17T10:40:29.769Z,14.60
2023-04-17T10:43:20.359Z,14.70
2023-04-17T10:45:57.311Z,15.00
2023-04-17T10:49:00.003Z,15.20
2023-04-17T10:51:29.515Z,15.50
2023-04-17T10:53:57.056Z,15.80
2023-04-17T10:56:25.374Z,16.00
2023-04-17T10:58:57.697Z,16.10
2023-04-17T11:01:29.642Z,16.20
2023-04-17T11:03:59.532Z,16.40
2023-04-17T11:06:36.389Z,16.50
2023-04-17T11:09:06.459Z,16.70
2023-04-17T11:14:13.600Z,17.10
2023-04-17T11:16:42.764Z,17.10
2023-04-17T11:19:11.187Z,17.20
2023-04-17T11:21:45.609Z,17.30
2023-04-17T11:24:12.264Z,17.50
2023-04-17T11:26:45.685Z,17.60
2023-04-17T11:29:16.530Z,17.80
2023-04-17T11:31:44.534Z,18.00
2023-04-17T11:34:11.419Z,18.20
2023-04-17T11:36:38.092Z,18.30
2023-04-17T11:39:05.098Z,18.50
2023-04-17T11:41:42.572Z,18.60
2023-04-17T11:44:10.071Z,18.70
2023-04-17T11:46:37.082Z,18.70
2023-04-17T11:49:05.147Z,18.80
2023-04-17T11:51:32.317Z,18.90
2023-04-17T11:53:59.776Z,19.00
2023-04-17T11:56:30.108Z,19.10
2023-04-17T11:58:58.459Z,19.20
2023-04-17T12:01:27.340Z,19.40
2023-04-17T12:03:57.555Z,19.40
2023-04-17T12:06:35.227Z,19.50
2023-04-17T12:09:02.837Z,19.60
2023-04-17T12:11:31.538Z,19.70
2023-04-17T12:13:58.954Z,19.80
2023-04-17T12:16:27.611Z,20.00
2023-04-17T12:18:55.065Z,20.10
2023-04-17T12:21:23.624Z,20.20
2023-04-17T12:23:51.343Z,20.40
2023-04-17T12:26:18.074Z,20.40
2023-04-17T12:28:44.900Z,20.60
2023-04-17T12:31:11.649Z,20.70
2023-04-17T12:33:38.432Z,20.90
2023-04-17T12:36:06.473Z,21.00
2023-04-17T12:38:33.241Z,21.20
2023-04-17T12:40:59.880Z,21.20
2023-04-17T12:43:26.493Z,21.30
2023-04-17T12:45:53.496Z,21.40
2023-04-17T12:48:20.297Z,21.50
2023-04-17T12:50:46.940Z,21.60
2023-04-17T12:53:14.661Z,21.60
2023-04-17T12:55:43.580Z,21.50
2023-04-17T12:58:11.934Z,21.30
2023-04-17T13:00:40.090Z,21.00
2023-04-17T13:03:06.964Z,20.90
2023-04-17T13:05:33.767Z,21.00
2023-04-17T13:08:00.791Z,21.00
2023-04-17T13:10:27.901Z,21.00
2023-04-17T13:12:54.630Z,20.90
2023-04-17T13:15:21.738Z,20.70
2023-04-17T13:17:48.590Z,20.60
2023-04-17T13:20:15.741Z,20.40
2023-04-17T13:22:42.426Z,20.30
2023-04-17T13:25:09.732Z,20.30
2023-04-17T13:27:37.024Z,20.40
2023-04-17T13:30:04.055Z,20.70
2023-04-17T13:32:30.758Z,20.80
2023-04-17T13:34:58.753Z,20.80
2023-04-17T13:37:25.822Z,20.80
2023-04-17T13:39:52.827Z,20.90
2023-04-17T13:42:19.727Z,21.00
2023-04-17T13:44:47.192Z,21.20
2023-04-17T13:47:14.038Z,21.30
2023-04-17T13:49:40.835Z,21.50
2023-04-17T13:52:07.680Z,21.60
2023-04-17T13:54:34.337Z,21.50
2023-04-17T13:57:01.308Z,21.30
2023-04-17T13:59:30.705Z,21.00
2023-04-17T14:01:57.448Z,20.80
2023-04-17T14:04:24.333Z,20.70
2023-04-17T14:06:51.422Z,20.80
2023-04-17T14:09:18.228Z,21.00
2023-04-17T14:11:44.904Z,21.30
2023-04-17T14:14:12.705Z,21.50
2023-04-17T14:16:41.251Z,21.80
2023-04-17T14:19:13.994Z,21.80
2023-04-17T14:21:41.733Z,21.60
2023-04-17T14:24:08.779Z,21.40
2023-04-17T14:26:35.994Z,21.10
2023-04-17T14:29:03.035Z,20.80
2023-04-17T14:31:29.795Z,20.50
2023-04-17T14:33:56.465Z,20.30
2023-04-17T14:36:23.394Z,20.30
2023-04-17T14:38:51.223Z,20.50
2023-04-17T14:41:17.954Z,20.70
2023-04-17T14:43:45.072Z,20.70
2023-04-17T14:46:11.982Z,20.90
2023-04-17T14:48:54.120Z,21.00
2023-04-17T14:51:23.401Z,21.00
2023-04-17T14:53:51.203Z,20.90
2023-04-17T14:56:17.864Z,20.90
2023-04-17T14:58:44.525Z,20.80
2023-04-17T15:01:11.339Z,20.60
2023-04-17T15:03:38.251Z,20.50
2023-04-17T15:06:05.325Z,20.50
2023-04-17T15:08:32.118Z,20.40
2023-04-17T15:10:58.999Z,20.20
2023-04-17T15:13:25.756Z,20.00
2023-04-17T15:15:52.550Z,19.80
2023-04-17T15:18:19.324Z,19.70
2023-04-17T15:20:46.323Z,19.50
2023-04-17T15:23:13.210Z,19.40
2023-04-17T15:25:40.143Z,19.30
2023-04-17T15:28:07.011Z,19.20
2023-04-17T15:30:33.649Z,19.10
2023-04-17T15:33:00.473Z,18.90
2023-04-17T15:35:27.199Z,18.80
2023-04-17T15:37:53.793Z,18.60
2023-04-17T15:40:20.907Z,18.50
2023-04-17T15:42:47.596Z,18.30
2023-04-17T15:45:14.309Z,18.30
2023-04-17T15:47:40.971Z,18.40
2023-04-17T15:50:08.573Z,18.40
2023-04-17T15:52:35.172Z,18.50
2023-04-17T15:55:01.774Z,18.50
2023-04-17T15:57:28.371Z,18.50
2023-04-17T15:59:54.998Z,18.50
2023-04-17T16:02:21.789Z,18.60
2023-04-17T16:04:48.458Z,18.60
2023-04-17T16:07:16.434Z,18.60
2023-04-17T16:09:44.569Z,18.70
2023-04-17T16:12:11.273Z,18.70
2023-04-17T16:14:38.192Z,18.80
2023-04-17T16:17:05.232Z,18.80
2023-04-17T16:19:32.440Z,18.90
2023-04-17T16:21:59.420Z,18.80
2023-04-17T16:24:26.487Z,18.80
2023-04-17T16:26:57.502Z,18.80
2023-04-17T16:29:25.277Z,18.70
2023-04-17T16:31:55.922Z,18.70
2023-04-17T16:34:22.819Z,18.70
2023-04-17T16:36:49.704Z,18.60
2023-04-17T16:39:16.448Z,18.50
2023-04-17T16:41:43.647Z,18.40
2023-04-17T16:44:10.533Z,18.30
2023-04-17T16:46:55.175Z,18.30
2023-04-17T16:49:24.135Z,18.20
2023-04-17T16:51:50.731Z,18.20
2023-04-17T16:54:19.254Z,18.10
2023-04-17T16:56:47.778Z,18.10
2023-04-17T16:59:14.755Z,18.00
2023-04-17T17:01:41.778Z,17.90
2023-04-17T17:04:08.541Z,17.80
2023-04-17T17:06:35.247Z,17.70
2023-04-17T17:09:01.944Z,17.60
2023-04-17T17:11:28.548Z,17.50
2023-04-17T17:13:55.120Z,17.50
2023-04-17T17:16:22.060Z,17.40
2023-04-17T17:18:49.023Z,17.40
2023-04-17T17:21:15.779Z,17.30
2023-04-17T17:23:42.456Z,17.20
2023-04-17T17:26:09.231Z,17.10
2023-04-17T17:28:36.145Z,17.00
2023-04-17T17:31:04.998Z,16.90
2023-04-17T17:33:32.176Z,16.80
2023-04-17T17:35:59.484Z,16.80
2023-04-17T17:38:28.570Z,16.60
2023-04-17T17:40:58.190Z,16.60
2023-04-17T17:43:24.875Z,16.40
2023-04-17T17:45:52.520Z,16.40
2023-04-17T17:48:20.495Z,16.30
2023-04-17T17:50:47.327Z,16.20
2023-04-17T17:53:14.054Z,16.10
2023-04-17T17:55:40.727Z,16.00
2023-04-17T17:58:08.942Z,16.00
2023-04-17T18:00:35.690Z,15.90
2023-04-17T18:03:02.507Z,15.80
2023-04-17T18:05:29.276Z,15.80
2023-04-17T18:07:55.946Z,15.70
2023-04-17T18:10:22.688Z,15.60
2023-04-17T18:12:49.725Z,15.50
2023-04-17T18:15:16.598Z,15.40
2023-04-17T18:17:43.407Z,15.30
2023-04-17T18:20:10.482Z,15.30
2023-04-17T18:22:38.296Z,15.20
2023-04-17T18:25:07.020Z,15.10
2023-04-17T18:27:36.267Z,15.00
2023-04-17T18:30:09.739Z,14.90
2023-04-17T18:32:36.566Z,14.80
2023-04-17T18:35:04.209Z,14.70
2023-04-17T18:37:30.861Z,14.60
2023-04-17T18:39:57.465Z,14.50
2023-04-17T18:42:24.259Z,14.40
2023-04-17T18:44:51.007Z,14.30
2023-04-17T18:47:17.649Z,14.30
2023-04-17T18:49:44.277Z,14.10
2023-04-17T18:52:10.922Z,14.10
2023-04-17T18:54:37.547Z,14.00
2023-04-17T18:57:04.189Z,13.90
2023-04-17T18:59:31.004Z,13.80
2023-04-17T19:01:57.730Z,13.70
2023-04-17T19:04:24.452Z,13.70
2023-04-17T19:06:51.056Z,13.60
2023-04-17T19:09:17.717Z,13.50
2023-04-17T19:11:47.499Z,13.50
2023-04-17T19:14:14.249Z,13.40
2023-04-17T19:16:44.434Z,13.30
2023-04-17T19:19:13.651Z,13.30
2023-04-17T19:21:40.530Z,13.20
2023-04-17T19:24:08.444Z,13.10
2023-04-17T19:26:35.140Z,13.00
2023-04-17T19:29:03.080Z,13.00
2023-04-17T19:31:29.771Z,13.00
2023-04-17T19:33:57.318Z,12.90
2023-04-17T19:36:24.486Z,12.80
2023-04-17T19:38:54.404Z,12.70
2023-04-17T19:41:21.875Z,12.70
2023-04-17T19:43:49.892Z,12.60
2023-04-17T19:46:18.102Z,12.60
2023-04-17T19:48:46.222Z,12.50
2023-04-17T19:51:14.363Z,12.50
2023-04-17T19:53:42.422Z,12.50
2023-04-17T19:56:09.827Z,12.40
2023-04-17T19:58:37.988Z,12.30
2023-04-17T20:01:05.171Z,12.30
2023-04-17T20:03:32.880Z,12.30
2023-04-17T20:06:00.122Z,12.20
2023-04-17T20:08:26.894Z,12.20
2023-04-17T20:10:53.626Z,12.10
2023-04-17T20:13:21.322Z,12.10
2023-04-17T20:15:48.004Z,12.00
2023-04-17T20:18:14.659Z,12.00
2023-04-17T20:20:41.299Z,11.90
2023-04-17T20:23:11.015Z,11.90
2023-04-17T20:25:37.623Z,11.80
2023-04-17T20:28:04.562Z,11.80
2023-04-17T20:30:31.356Z,11.70
2023-04-17T20:32:58.176Z,11.70
2023-04-17T20:35:24.995Z,11.60
2023-04-17T20:37:52.133Z,11.50
2023-04-17T20:40:19.576Z,11.60
2023-04-17T20:42:46.751Z,11.50
2023-04-17T20:45:13.596Z,11.40
2023-04-17T20:47:55.276Z,11.40
2023-04-17T20:50:23.194Z,11.40
2023-04-17T20:52:49.902Z,11.40
2023-04-17T20:55:18.735Z,11.30
2023-04-17T20:57:45.896Z,11.20
2023-04-17T21:00:12.978Z,11.20
2023-04-17T21:02:40.039Z,11.20
2023-04-17T21:05:07.841Z,11.10
2023-04-17T21:07:34.575Z,11.00
2023-04-17T21:10:01.849Z,11.00
2023-04-17T21:12:28.458Z,11.00
2023-04-17T21:14:55.082Z,10.90
2023-04-17T21:17:21.850Z,10.90
2023-04-17T21:19:49.227Z,10.80
2023-04-17T21:22:15.928Z,10.80
2023-04-17T21:24:42.649Z,10.70
2023-04-17T21:27:10.145Z,10.70
2023-04-17T21:29:36.882Z,10.60
2023-04-17T21:32:03.839Z,10.50
2023-04-17T21:34:30.594Z,10.50
2023-04-17T21:36:59.180Z,10.40
2023-04-17T21:39:25.821Z,10.40
2023-04-17T21:41:52.490Z,10.30
2023-04-17T21:44:19.075Z,10.20
2023-04-17T21:46:48.640Z,10.20
2023-04-17T21:49:15.408Z,10.10
2023-04-17T21:51:42.334Z,10.10
2023-04-17T21:54:10.019Z,10.00
2023-04-17T21:56:36.852Z,10.00
2023-04-17T21:59:03.732Z,9.90
2023-04-17T22:01:30.481Z,9.90
2023-04-17T22:03:57.284Z,9.80
2023-04-17T22:06:24.180Z,9.70
2023-04-17T22:08:50.883Z,9.70
2023-04-17T22:11:17.598Z,9.60
2023-04-17T22:13:44.951Z,9.60
2023-04-17T22:16:11.629Z,9.60
2023-04-17T22:18:38.310Z,9.60
2023-04-17T22:21:05.401Z,9.50
2023-04-17T22:24:09.343Z,9.50
2023-04-17T22:27:32.306Z,9.40
2023-04-17T22:30:17.564Z,9.40
2023-04-17T22:32:44.189Z,9.30
2023-04-17T22:36:07.358Z,9.30
2023-04-17T22:38:52.617Z,9.30
2023-04-17T22:41:57.822Z,9.20
2023-04-17T22:44:43.845Z,9.20
2023-04-17T22:47:28.892Z,9.20
2023-04-17T22:50:32.968Z,9.20
2023-04-17T22:52:59.627Z,9.20
2023-04-17T22:56:03.862Z,9.20
2023-04-17T22:59:08.180Z,9.30
2023-04-17T23:01:54.189Z,9.30
2023-04-17T23:04:58.955Z,9.30
2023-04-17T23:07:28.718Z,9.30
2023-04-17T23:09:55.374Z,9.30
2023-04-17T23:12:21.941Z,9.30
2023-04-17T23:14:48.689Z,9.30
2023-04-17T23:17:15.459Z,9.30
2023-04-17T23:19:42.150Z,9.30
2023-04-17T23:22:09.495Z,9.30
2023-04-17T23:24:36.309Z,9.20
2023-04-17T23:27:02.987Z,9.20
2023-04-17T23:29:29.610Z,9.20
2023-04-17T23:31:56.185Z,9.20
2023-04-17T23:34:22.782Z,9.20
2023-04-17T23:36:49.386Z,9.20
2023-04-17T23:39:15.980Z,9.20
2023-04-17T23:41:42.777Z,9.20
2023-04-17T23:44:10.042Z,9.10
2023-04-17T23:46:36.916Z,9.10
2023-04-17T23:49:05.037Z,9.10
2023-04-17T23:51:31.721Z,9.10
2023-04-17T23:54:00.419Z,9.10
2023-04-17T23:56:29.806Z,9.00
2023-04-17T23:58:57.163Z,9.00
